Aviation Digital Data Service (ADDS)

Output produced by METARs form (0508 UTC 21 September 2017)
found at http://www.aviationweather.gov/adds/metars/
 
LMML 210445Z 33006KT 290V010 9999 FEW023 17/11 Q1019 NOSIG
TAF LMML 210500Z 2106/2206 32008KT 9999 FEW030 
     BECMG 2200/2203 VRB06KT